Terminal Aerodrome Forecast
Issued by NWS

Home | Current Version | Previous Version | Text Only | Print | Product List | Glossary On
Versions: 1 2 3 4 5 6 7 8 9 10 11 12 13 14 15 16 17 18 19 20 21 22 23 24
261
FTUS45 KRIW 241128
TAFPNA
TAF
KPNA 241128Z 2412/2512 VRB06KT 5SM -SN BKN025
      TEMPO 2412/2415 1 1/2SM -SN BKN010
     FM241700 32009KT P6SM VCSH SCT020 BKN035
     FM242200 31011KT P6SM SCT050
      AMD LTD TO CLD VIS AND WIND=

USA.gov is the U.S. government's official web portal to all federal, state and local government web resources and services.